Thunder radar more information blitzortung!


Radar de pluja more information rain snow radar


Visita la nostra xarxa de llocs de meteo:

Template documentation
and downloads

And another site



No particular awareness of the weather is required.    There are no Weather-warnings

Pagina Historial Weather Underground text

Diari Resum Juliol 27, 2017 Unitats:  Imperial    Mètric   Tant
« Previous Dia
SegĂźent Dia »
Diari Setmana Mensual Anual Personalitzada
  Maxima: Minima: Media:
Temperatura: 91.9 °F 64.4 °F 81.3 °F
Punt de rosada: 66.7 °F 57.2 °F 63.7 °F
Humitat: 83 % 42 % 57 %
Wind Speed: 11.5 mph 0 mph 3.7 mph
RĂ fegues de vent: 11.5 mph - -
Vent:- - SSW
Pression baro: 29.9 in 29.8 in -
Precipitacions: 0 in    
Historical Graphs
 
 
Dades de taula per Juliol 27, 2017
Temps Temperatura Punt de rosada Pression baro Vent Wind Speed RĂ fegues de vent Humitat Rainfall Rate (Hourly)
00:01 71.1 °F 57.7 °F 29.9 in NE 1.2 mph 1.2 mph 63 % 0 in
00:05 65.7 °F 57.9 °F 29.9 in Calm     76 % 0 in
00:15 65.1 °F 57.4 °F 29.9 in Calm   2 mph 76 % 0 in
00:25 65.1 °F 57.4 °F 29.9 in Calm     76 % 0 in
00:35 65.1 °F 57.7 °F 29.9 in SW 1 mph 1 mph 77 % 0 in
00:45 64.8 °F 57.4 °F 29.9 in Calm   1 mph 77 % 0 in
00:55 64.6 °F 57.2 °F 29.9 in Calm   1 mph 77 % 0 in
01:05 64.6 °F 57.6 °F 29.9 in SSW 1 mph 1 mph 78 % 0 in
01:15 64.4 °F 57.4 °F 29.9 in Calm     78 % 0 in
01:25 64.4 °F 57.4 °F 29.9 in Calm     78 % 0 in
01:35 64.4 °F 57.4 °F 29.9 in Calm     78 % 0 in
01:45 64.4 °F 57.4 °F 29.9 in Calm     78 % 0 in
01:55 64.4 °F 57.4 °F 29.9 in Calm     78 % 0 in
02:05 64.6 °F 57.9 °F 29.9 in Calm     79 % 0 in
02:15 65.1 °F 58.5 °F 29.9 in Calm     79 % 0 in
02:25 65.5 °F 58.5 °F 29.9 in Calm   2 mph 78 % 0 in
02:35 65.5 °F 58.5 °F 29.9 in SSW 1 mph 2 mph 78 % 0 in
02:45 65.8 °F 58.8 °F 29.9 in SW 1 mph 2 mph 78 % 0 in
02:55 65.5 °F 58.5 °F 29.9 in Calm   2 mph 78 % 0 in
03:05 66 °F 59 °F 29.9 in WSW 1 mph 2 mph 78 % 0 in
03:15 66.4 °F 58.6 °F 29.9 in WSW 1 mph 2 mph 76 % 0 in
03:25 67.3 °F 59.5 °F 29.9 in Calm   2 mph 76 % 0 in
03:35 68.5 °F 59.9 °F 29.9 in South 1 mph 2 mph 74 % 0 in
03:45 70 °F 60.4 °F 29.9 in ENE 1 mph 2 mph 72 % 0 in
03:55 70.9 °F 60.6 °F 29.9 in NE 1 mph 2 mph 70 % 0 in
04:05 71.6 °F 60.4 °F 29.9 in ENE 2 mph 2 mph 68 % 0 in
04:15 73.2 °F 61.5 °F 29.9 in ENE 1 mph 1 mph 67 % 0 in
04:25 74.1 °F 62.1 °F 29.9 in Calm   1 mph 66 % 0 in
04:35 74.3 °F 61.9 °F 29.9 in ENE 1 mph 3 mph 65 % 0 in
04:45 75.2 °F 61.7 °F 29.9 in SE 1 mph 3 mph 63 % 0 in
04:55 75.6 °F 61.5 °F 29.9 in SSE 1 mph 3 mph 62 % 0 in
05:05 76.6 °F 63.1 °F 29.9 in ESE 1 mph 3 mph 63 % 0 in
05:15 75.7 °F 61.3 °F 29.9 in East 3 mph 5 mph 61 % 0 in
05:25 76.6 °F 62.2 °F 29.9 in SE 2 mph 3 mph 61 % 0 in
10:25 77.4 °F 61.9 °F 29.9 in SSE 4.6 mph 4.6 mph 59 % 0 in
10:30 78.4 °F 63 °F 29.9 in SE 2.4 mph   59 % 0 in
10:35 77.7 °F 62.2 °F 29.9 in ESE 3.5 mph 3.5 mph 59 % 0 in
10:40 78.8 °F 63.3 °F 29.9 in ESE 1.2 mph 1.4 mph 59 % 0 in
10:45 79 °F 63 °F 29.9 in SSW 3.5 mph 3.5 mph 58 % 0 in
10:50 79.9 °F 63.3 °F 29.9 in SW 1.4 mph 1.4 mph 57 % 0 in
10:55 80.4 °F 63.3 °F 29.9 in NE 5.8 mph 5.8 mph 56 % 0 in
11:00 79.9 °F 62.8 °F 29.9 in East 3.6 mph 3.6 mph 56 % 0 in
11:05 79.5 °F 62.4 °F 29.9 in NW 2.3 mph 2.3 mph 56 % 0 in
11:06 79.5 °F 62.4 °F 29.9 in NW 2.3 mph 2.3 mph 56 % 0 in
11:11 80.4 °F 63.3 °F 29.9 in SW 4.3 mph 4.3 mph 56 % 0 in
11:16 80.6 °F 62.4 °F 29.9 in NNW 5.8 mph 5.8 mph 54 % 0 in
11:21 81.5 °F 62.8 °F 29.9 in SSE 2.3 mph 2.3 mph 53 % 0 in
11:26 82.2 °F 62.8 °F 29.9 in SW 4.6 mph 4.6 mph 52 % 0 in
11:31 83.5 °F 64 °F 29.9 in WSW 2.9 mph 2.9 mph 52 % 0 in
11:36 82.8 °F 62.8 °F 29.9 in South 2.3 mph 2.3 mph 51 % 0 in
11:41 82.2 °F 62.2 °F 29.9 in SW 5.9 mph 5.9 mph 51 % 0 in
11:46 84 °F 63.3 °F 29.9 in SW 2.3 mph 2.3 mph 50 % 0 in
11:51 84.2 °F 63 °F 29.9 in WSW 5.8 mph 5.8 mph 49 % 0 in
11:56 85.5 °F 63.5 °F 29.9 in SW 7.4 mph 7.4 mph 48 % 0 in
12:01 85.8 °F 63.3 °F 29.9 in WSW 2.3 mph 2.3 mph 47 % 0 in
12:06 86.5 °F 63.9 °F 29.9 in SSW 3.5 mph 3.5 mph 47 % 0 in
12:11 85.5 °F 63 °F 29.9 in WNW 8.1 mph 8.1 mph 47 % 0 in
12:16 84.9 °F 61.9 °F 29.9 in SW 4.7 mph 4.7 mph 46 % 0 in
12:21 85.1 °F 62.1 °F 29.9 in South 6.9 mph 6.9 mph 46 % 0 in
12:26 85.5 °F 62.2 °F 29.9 in South 5.9 mph 5.9 mph 46 % 0 in
12:31 86.7 °F 62.8 °F 29.9 in SSW 6.9 mph 6.9 mph 45 % 0 in
12:36 87.1 °F 63.1 °F 29.9 in SW 3.6 mph 3.6 mph 45 % 0 in
12:41 87.4 °F 63.5 °F 29.9 in SSE 4.6 mph 4.6 mph 45 % 0 in
12:46 87.3 °F 62.8 °F 29.9 in WSW 8.1 mph 8.1 mph 44 % 0 in
12:51 88.7 °F 64 °F 29.9 in SW 5.8 mph 5.8 mph 44 % 0 in
12:56 89.2 °F 64.6 °F 29.9 in West 3.5 mph 3.5 mph 44 % 0 in
13:01 88.9 °F 64 °F 29.9 in SW 4.6 mph 4.6 mph 44 % 0 in
13:06 89.4 °F 63.3 °F 29.9 in SSE 3.8 mph 3.8 mph 42 % 0 in
13:11 88.7 °F 62.8 °F 29.9 in South 4.6 mph 4.6 mph 42 % 0 in
13:16 89.1 °F 63 °F 29.9 in NE 6.9 mph 6.9 mph 42 % 0 in
13:21 89.4 °F 64 °F 29.8 in SSW 2.3 mph 2.3 mph 43 % 0 in
13:26 90.9 °F 65.3 °F 29.8 in South 3.5 mph 3.5 mph 43 % 0 in
13:31 91.9 °F 65.7 °F 29.8 in SSE 4.3 mph 4.3 mph 42 % 0 in
13:36 89.6 °F 64 °F 29.9 in ESE 7.1 mph 7.1 mph 43 % 0 in
13:41 88.9 °F 64 °F 29.9 in WSW 8.1 mph 8.1 mph 44 % 0 in
13:46 90.1 °F 65.3 °F 29.9 in WNW 4.9 mph 4.9 mph 44 % 0 in
13:51 91.2 °F 66.4 °F 29.9 in SSW 6.2 mph 6.2 mph 44 % 0 in
13:56 91 °F 65.5 °F 29.9 in SSW 5.8 mph 5.8 mph 43 % 0 in
14:01 91.4 °F 65.8 °F 29.9 in SW 5.8 mph 5.8 mph 43 % 0 in
14:06 90.7 °F 65.1 °F 29.9 in SW 5.9 mph 5.9 mph 43 % 0 in
14:11 90 °F 64.6 °F 29.9 in SW 8.1 mph 8.1 mph 43 % 0 in
14:16 89.6 °F 64 °F 29.9 in SSW 8.1 mph 8.1 mph 43 % 0 in
14:21 89.6 °F 64.8 °F 29.9 in WSW 8.1 mph 8.1 mph 44 % 0 in
14:26 90.9 °F 65.8 °F 29.9 in SW 7.4 mph 7.4 mph 44 % 0 in
14:31 89.2 °F 64.6 °F 29.9 in SW 8.1 mph 8.1 mph 44 % 0 in
14:36 90 °F 65.1 °F 29.9 in WSW 9.2 mph 9.2 mph 44 % 0 in
14:41 90 °F 65.1 °F 29.9 in SSW 8.1 mph 8.1 mph 44 % 0 in
14:46 91.2 °F 66.4 °F 29.9 in WSW 5.8 mph 5.8 mph 44 % 0 in
14:51 91.2 °F 66.4 °F 29.9 in SSE 2.3 mph 2.3 mph 44 % 0 in
14:56 91.4 °F 65.8 °F 29.9 in WSW 5.8 mph 5.8 mph 43 % 0 in
15:01 91.6 °F 66.6 °F 29.9 in WNW 4.6 mph 4.6 mph 44 % 0 in
15:06 91.4 °F 66.4 °F 29.9 in WSW 9.7 mph 9.7 mph 44 % 0 in
15:11 90.9 °F 65.8 °F 29.9 in West 9.2 mph 9.2 mph 44 % 0 in
15:16 91 °F 66 °F 29.9 in SW 3.5 mph 3.5 mph 44 % 0 in
15:21 91.6 °F 66.6 °F 29.8 in SW 6.9 mph 6.9 mph 44 % 0 in
15:26 91 °F 66 °F 29.8 in SSW 5.8 mph 5.8 mph 44 % 0 in
15:31 91.8 °F 66 °F 29.8 in WSW 9.2 mph 9.2 mph 43 % 0 in
15:36 90.9 °F 65.8 °F 29.8 in South 9.2 mph 9.2 mph 44 % 0 in
15:41 90 °F 65.1 °F 29.8 in ESE 5.8 mph 5.8 mph 44 % 0 in
15:46 90.9 °F 65.8 °F 29.8 in SSW 6.9 mph 6.9 mph 44 % 0 in
15:51 90.3 °F 66 °F 29.8 in South 4.6 mph 4.6 mph 45 % 0 in
15:56 90.3 °F 66 °F 29.8 in SW 9.2 mph 9.2 mph 45 % 0 in
16:01 90.5 °F 66.4 °F 29.8 in SW 8.1 mph 8.1 mph 45 % 0 in
16:06 89.8 °F 65.7 °F 29.8 in SE 7.8 mph 7.8 mph 45 % 0 in
16:11 90.5 °F 66.4 °F 29.8 in SW 8.1 mph 8.1 mph 45 % 0 in
16:16 90.3 °F 66 °F 29.8 in SW 3.5 mph 3.6 mph 45 % 0 in
16:21 90.1 °F 65.8 °F 29.8 in SW 4.6 mph 4.6 mph 45 % 0 in
16:26 90.5 °F 66.4 °F 29.8 in SSW 6.9 mph 6.9 mph 45 % 0 in
16:31 90 °F 65.8 °F 29.8 in South 10.5 mph 10.5 mph 45 % 0 in
16:36 90 °F 65.1 °F 29.8 in West 5.4 mph 5.4 mph 44 % 0 in
16:41 89.8 °F 64.9 °F 29.8 in SSE 8.1 mph 8.1 mph 44 % 0 in
16:46 90.1 °F 65.3 °F 29.8 in SSE 9.2 mph 9.2 mph 44 % 0 in
16:51 90.7 °F 65.1 °F 29.8 in West 2.3 mph 2.4 mph 43 % 0 in
16:56 90.9 °F 65.3 °F 29.8 in SSW 5.8 mph 5.8 mph 43 % 0 in
17:01 90 °F 64.6 °F 29.8 in South 6.9 mph 6.9 mph 43 % 0 in
17:06 90.7 °F 65.1 °F 29.8 in SW 4.6 mph 4.6 mph 43 % 0 in
17:11 90.3 °F 64 °F 29.8 in SSW 6.2 mph 6.2 mph 42 % 0 in
17:16 90.1 °F 64 °F 29.8 in South 5.8 mph 5.8 mph 42 % 0 in
17:21 91 °F 64.8 °F 29.8 in South 5.8 mph 5.8 mph 42 % 0 in
17:26 90.3 °F 64 °F 29.8 in South 6.9 mph 6.9 mph 42 % 0 in
17:31 90.1 °F 64 °F 29.8 in SSW 4.6 mph 4.6 mph 42 % 0 in
17:32 90.1 °F 64 °F 29.8 in ESE 4.6 mph 4.6 mph 42 % 0 in
17:37 90.3 °F 64 °F 29.8 in SW 7.4 mph 7.4 mph 42 % 0 in
17:42 90 °F 63.9 °F 29.8 in South 4.6 mph 4.6 mph 42 % 0 in
17:47 90.5 °F 64.9 °F 29.8 in SW 4.6 mph 4.6 mph 43 % 0 in
17:52 89.1 °F 63.7 °F 29.8 in WSW 4.9 mph 4.9 mph 43 % 0 in
17:57 88.9 °F 64 °F 29.8 in SSE 5.8 mph 5.8 mph 44 % 0 in
18:02 89.4 °F 64.6 °F 29.8 in SW 7.8 mph 7.8 mph 44 % 0 in
18:07 88.5 °F 63.9 °F 29.8 in SSW 6.4 mph 6.4 mph 44 % 0 in
18:12 88.5 °F 64.6 °F 29.8 in SW 6.9 mph 6.9 mph 45 % 0 in
18:17 88.3 °F 64.2 °F 29.8 in South 4.6 mph 4.6 mph 45 % 0 in
18:22 88 °F 64 °F 29.8 in SW 8.1 mph 8.1 mph 45 % 0 in
18:27 87.8 °F 63.9 °F 29.8 in South 11.5 mph 11.5 mph 45 % 0 in
18:32 87.3 °F 64 °F 29.8 in SSW 9.2 mph 9.2 mph 46 % 0 in
18:37 87.3 °F 64 °F 29.8 in SW 8.1 mph 8.1 mph 46 % 0 in
18:42 87.1 °F 63.9 °F 29.8 in SE 6 mph 6 mph 46 % 0 in
18:47 87.1 °F 63.9 °F 29.8 in South 8.1 mph 8.1 mph 46 % 0 in
18:52 86.4 °F 63.1 °F 29.8 in SW 8.1 mph 8.1 mph 46 % 0 in
18:57 86.7 °F 63.5 °F 29.8 in SSW 6.9 mph 6.9 mph 46 % 0 in
19:02 86.5 °F 63.3 °F 29.8 in WSW 6.9 mph 6.9 mph 46 % 0 in
19:07 86.5 °F 63.3 °F 29.8 in South 8.1 mph 8.1 mph 46 % 0 in
19:12 86.7 °F 63.5 °F 29.8 in SSW 5.8 mph 5.8 mph 46 % 0 in
19:17 86.5 °F 63.3 °F 29.8 in SSW 8.1 mph 8.1 mph 46 % 0 in
19:22 86 °F 62.8 °F 29.8 in South 4.6 mph 4.6 mph 46 % 0 in
19:27 85.8 °F 63.3 °F 29.8 in South 4.6 mph 4.6 mph 47 % 0 in
19:32 85.6 °F 63.1 °F 29.8 in SSW 4.9 mph 4.9 mph 47 % 0 in
19:37 85.3 °F 62.8 °F 29.8 in SW 4.6 mph 4.6 mph 47 % 0 in
19:42 85.1 °F 62.6 °F 29.8 in WSW 4.6 mph 4.6 mph 47 % 0 in
19:47 84.9 °F 62.4 °F 29.8 in SSW 4.6 mph 4.6 mph 47 % 0 in
19:52 84.7 °F 62.2 °F 29.8 in SW 3.5 mph 3.5 mph 47 % 0 in
19:57 84.6 °F 62.1 °F 29.8 in SW 6.2 mph 6.2 mph 47 % 0 in
20:02 84 °F 62.8 °F 29.8 in SW 4.3 mph 4.3 mph 49 % 0 in
20:07 83.7 °F 63 °F 29.8 in West 5.8 mph 5.8 mph 50 % 0 in
20:12 83.5 °F 63 °F 29.8 in SW 3.5 mph 3.5 mph 50 % 0 in
20:17 83.5 °F 63.3 °F 29.8 in SSW 5.8 mph 5.8 mph 51 % 0 in
20:22 83.1 °F 63.1 °F 29.8 in SSW 4.6 mph 4.6 mph 51 % 0 in
20:27 82.9 °F 63.5 °F 29.8 in SW 4.7 mph   52 % 0 in
20:32 82.8 °F 63.9 °F 29.8 in WSW 2.3 mph 2.4 mph 53 % 0 in
20:33 82.8 °F 63.9 °F 29.8 in WSW 2.3 mph 2.4 mph 53 % 0 in
20:35 73.9 °F 66.4 °F 29.9 in Calm   1 mph 77 % 0 in
20:38 82.6 °F 63.7 °F 29.8 in SSW 3.5 mph 3.5 mph 53 % 0 in
20:43 82.4 °F 64 °F 29.8 in SSW 3.1 mph 3.1 mph 54 % 0 in
20:45 73.8 °F 66.6 °F 29.9 in NNE 2 mph 3 mph 78 % 0 in
20:48 81.9 °F 63.7 °F 29.8 in WSW 3.5 mph 3.5 mph 54 % 0 in
20:53 81.5 °F 63.9 °F 29.8 in SW 2.3 mph 2.3 mph 55 % 0 in
20:55 73.6 °F 66.4 °F 29.9 in NE 1 mph 2 mph 78 % 0 in
20:58 81.3 °F 64 °F 29.8 in SW 3.5 mph 3.5 mph 56 % 0 in
21:03 81 °F 63.9 °F 29.8 in West 6.9 mph 6.9 mph 56 % 0 in
21:05 73.4 °F 66.6 °F 29.9 in Calm   1 mph 79 % 0 in
21:08 80.8 °F 64 °F 29.8 in SSW 4.6 mph 4.6 mph 57 % 0 in
21:13 80.4 °F 64.2 °F 29.8 in SW 3.5 mph 3.5 mph 58 % 0 in
21:15 73.2 °F 66.7 °F 29.9 in Calm   1 mph 80 % 0 in
21:18 80.2 °F 64 °F 29.8 in SW 4.6 mph 4.6 mph 58 % 0 in
21:23 80.1 °F 64 °F 29.8 in SW 3.5 mph 3.6 mph 58 % 0 in
21:25 73 °F 66 °F 29.9 in NE 1 mph 1 mph 79 % 0 in
21:28 79.7 °F 64 °F 29.8 in SSW 3.3 mph 3.3 mph 59 % 0 in
21:33 79.5 °F 63.9 °F 29.8 in SW 3.5 mph 3.5 mph 59 % 0 in
21:35 72.9 °F 66 °F 29.9 in Calm   1 mph 79 % 0 in
21:38 79.2 °F 63.7 °F 29.8 in SW 3.5 mph 3.5 mph 59 % 0 in
21:43 79 °F 63.9 °F 29.8 in WSW 2.3 mph 2.3 mph 60 % 0 in
21:45 72.5 °F 66 °F 29.9 in Calm   1 mph 80 % 0 in
21:48 78.8 °F 63.7 °F 29.8 in SW 2.3 mph 2.3 mph 60 % 0 in
21:53 78.8 °F 63.7 °F 29.8 in SW 2.3 mph 2.3 mph 60 % 0 in
21:55 72.3 °F 65.8 °F 29.9 in Calm     80 % 0 in
21:58 78.6 °F 64 °F 29.8 in WSW 1.2 mph 1.4 mph 61 % 0 in
22:03 78.6 °F 64 °F 29.8 in SW 2.3 mph 2.3 mph 61 % 0 in
22:05 72.3 °F 66.2 °F 29.9 in Calm     81 % 0 in
22:08 78.4 °F 63.9 °F 29.9 in WSW 2.3 mph 2.3 mph 61 % 0 in
22:13 78.1 °F 64 °F 29.9 in SW 2.2 mph   62 % 0 in
22:15 72.3 °F 66.2 °F 29.9 in Calm   1 mph 81 % 0 in
22:18 78.1 °F 64 °F 29.9 in SW 2.3 mph 2.3 mph 62 % 0 in
22:23 77.9 °F 63.9 °F 29.9 in SW 2.3 mph 2.3 mph 62 % 0 in
22:25 72.1 °F 66 °F 29.9 in Calm     81 % 0 in
22:28 77.9 °F 63.9 °F 29.9 in SW 1.4 mph 1.4 mph 62 % 0 in
22:33 77.7 °F 63.7 °F 29.9 in SW 2.3 mph 2.3 mph 62 % 0 in
22:35 72 °F 66.2 °F 29.9 in Calm     82 % 0 in
22:38 77.4 °F 63.9 °F 29.9 in SW 2.3 mph 2.3 mph 63 % 0 in
22:43 77.2 °F 63.7 °F 29.9 in SW 1.2 mph 1.2 mph 63 % 0 in
22:45 72 °F 66.2 °F 29.9 in Calm   1 mph 82 % 0 in
22:48 77.2 °F 64 °F 29.9 in SSW 2.3 mph 2.3 mph 64 % 0 in
22:53 76.8 °F 64.6 °F 29.8 in Calm     66 % 0 in
22:55 72 °F 66.2 °F 29.9 in Calm   1 mph 82 % 0 in
22:58 76.8 °F 64.6 °F 29.8 in WSW 1.2 mph   66 % 0 in
23:03 76.8 °F 64.6 °F 29.8 in WSW 2.9 mph 2.9 mph 66 % 0 in
23:05 71.8 °F 66 °F 29.9 in Calm     82 % 0 in
23:08 76.6 °F 64.4 °F 29.9 in WSW 3.5 mph 3.5 mph 66 % 0 in
23:13 76.5 °F 64.8 °F 29.9 in SW 1.2 mph 1.2 mph 67 % 0 in
23:15 71.8 °F 66 °F 29.9 in Calm     82 % 0 in
23:18 76.5 °F 65.1 °F 29.9 in SW 1.2 mph   68 % 0 in
23:23 76.3 °F 65.5 °F 29.9 in Calm     69 % 0 in
23:25 71.8 °F 66.4 °F 29.9 in Calm     83 % 0 in
23:28 76.1 °F 65.1 °F 29.9 in Calm     69 % 0 in
23:33 76.1 °F 65.7 °F 29.9 in NNE 1.2 mph   70 % 0 in
23:35 71.6 °F 66.2 °F 29.9 in NE 1 mph 2 mph 83 % 0 in
23:38 75.9 °F 65.8 °F 29.9 in Calm     71 % 0 in
23:43 75.7 °F 65.7 °F 29.9 in Calm     71 % 0 in
23:45 71.4 °F 66 °F 29.9 in Calm     83 % 0 in
23:48 75.7 °F 66 °F 29.9 in NNW 1.2 mph   72 % 0 in
23:53 75.7 °F 66.6 °F 29.9 in Calm     73 % 0 in
23:55 71.1 °F 65.7 °F 29.9 in Calm     83 % 0 in
23:58 75.7 °F 66.6 °F 29.9 in Calm     73 % 0 in
Meteo Sesrovires
Elogis d' Weather Underground - 3.75 mb

Guio original per  Jim McMurry - jmcmurry@mwt.net Adaptat per a la plantilla per  Wim van der Kuil - Leuven-Template.eu

Trobareu la nostra informacio del temps tambe a:

Weather Underground

AWEKAS